Time;durP1;ratioP1;P1;durP2;ratioP2;P2;SDS_P1;SDS_P2;PMS_P1;PMS_P2;Temp;Humidity;BMP_temperature;BMP_pressure;BME280_temperature;BME280_humidity;BME280_pressure;Samples;Min_cycle;Max_cycle;Signal;HPM_P1;HPM_P2
2021/09/27 00:00:29;;;;;;;29.03;26.23;;;17.00;99.90;;;16.23;100.00;98162.03;5071247;28;20544;-83
2021/09/27 00:02:56;;;;;;;30.47;27.37;;;17.00;99.90;;;16.18;100.00;98164.69;5066813;28;20460;-83
2021/09/27 00:05:26;;;;;;;30.27;27.00;;;17.00;99.90;;;16.05;100.00;98161.22;5070635;28;20484;-83
2021/09/27 00:07:53;;;;;;;30.17;27.00;;;17.00;99.90;;;16.12;100.00;98161.06;5077692;28;20794;-85
2021/09/27 00:10:24;;;;;;;30.30;26.90;;;17.00;99.90;;;16.17;100.00;98160.31;5077918;28;20471;-87
2021/09/27 00:12:54;;;;;;;30.33;26.30;;;17.00;99.90;;;16.28;100.00;98164.84;5074088;28;20464;-86
2021/09/27 00:15:28;;;;;;;29.80;26.30;;;17.10;99.90;;;16.31;100.00;98169.81;5068799;28;21054;-83
2021/09/27 00:17:55;;;;;;;31.10;27.53;;;17.10;99.90;;;16.20;100.00;98173.44;5083516;28;20556;-84
2021/09/27 00:20:23;;;;;;;30.43;27.20;;;17.10;99.90;;;16.23;100.00;98153.84;5072271;28;20456;-84
2021/09/27 00:22:51;;;;;;;29.53;26.53;;;17.10;99.90;;;16.24;100.00;98150.06;5081905;28;20458;-84
2021/09/27 00:25:21;;;;;;;28.10;24.10;;;17.10;99.90;;;16.22;100.00;98152.22;5087052;28;21004;-85
2021/09/27 00:27:48;;;;;;;27.40;24.00;;;17.10;99.90;;;16.17;100.00;98146.69;5094260;28;20459;-86
2021/09/27 00:30:19;;;;;;;29.10;26.10;;;17.00;99.90;;;16.20;100.00;98136.09;5091471;28;20480;-83
2021/09/27 00:32:46;;;;;;;28.13;25.10;;;17.00;99.90;;;16.02;100.00;98134.47;5089669;28;20474;-87
2021/09/27 00:35:17;;;;;;;30.20;27.00;;;16.90;99.90;;;16.03;100.00;98147.03;5083215;28;20480;-84
2021/09/27 00:37:45;;;;;;;30.83;27.60;;;16.90;99.90;;;15.98;100.00;98146.91;5072726;28;20531;-83
2021/09/27 00:40:18;;;;;;;31.37;25.30;;;16.80;99.90;;;15.93;100.00;98146.84;5069623;28;20476;-83
2021/09/27 00:42:46;;;;;;;30.17;26.97;;;16.80;99.90;;;15.79;100.00;98125.34;5082009;28;21043;-83
2021/09/27 00:45:18;;;;;;;30.03;26.83;;;16.80;99.90;;;15.87;100.00;98154.06;5062487;28;20497;-83
2021/09/27 00:47:46;;;;;;;31.80;28.30;;;16.80;99.90;;;15.96;100.00;98154.53;5067160;28;20548;-84
2021/09/27 00:50:17;;;;;;;33.00;28.53;;;16.80;99.90;;;15.89;100.00;98151.97;5068856;28;20494;-86
2021/09/27 00:52:45;;;;;;;35.07;28.73;;;16.80;99.90;;;15.92;100.00;98156.09;5072002;28;20455;-87
2021/09/27 00:55:16;;;;;;;33.47;28.63;;;16.80;99.90;;;15.88;100.00;98157.66;5072474;28;20466;-84
2021/09/27 00:57:44;;;;;;;33.20;27.27;;;16.80;99.90;;;15.86;100.00;98149.69;5071892;28;21023;-84
2021/09/27 01:00:19;;;;;;;29.03;25.93;;;16.80;99.90;;;16.07;100.00;98148.16;5061736;28;20448;-84
2021/09/27 01:02:47;;;;;;;29.17;25.93;;;16.80;99.90;;;15.93;100.00;98144.13;5069312;28;20661;-84
2021/09/27 01:05:17;;;;;;;31.67;28.20;;;16.80;99.90;;;16.01;100.00;98143.72;5063259;28;20504;-85
2021/09/27 01:07:55;;;;;;;29.57;26.50;;;16.80;99.90;;;15.92;100.00;98137.03;5071020;28;20462;-84
2021/09/27 01:11:02;;;;;;;31.10;25.57;;;16.80;99.90;;;16.03;100.00;98132.56;5063312;28;20510;-81
2021/09/27 01:14:17;;;;;;;31.73;26.17;;;16.80;99.90;;;15.90;100.00;98133.72;5043488;28;20456;-85
2021/09/27 01:16:56;;;;;;;28.47;25.10;;;16.80;99.90;;;15.88;100.00;98135.84;5071675;28;20454;-85
2021/09/27 01:19:54;;;;;;;29.83;26.53;;;16.70;99.90;;;15.81;100.00;98139.53;5071932;28;20547;-81
2021/09/27 01:22:46;;;;;;;29.10;25.87;;;16.70;99.90;;;15.72;100.00;98138.31;5061322;28;20560;-83
2021/09/27 01:25:34;;;;;;;27.13;24.37;;;16.60;99.90;;;15.82;100.00;98134.94;5064867;28;20484;-80
2021/09/27 01:28:45;;;;;;;27.87;24.07;;;16.60;99.90;;;15.56;100.00;98132.59;5058204;28;20453;-81
2021/09/27 01:32:08;;;;;;;30.40;27.10;;;16.50;99.90;;;15.60;100.00;98127.47;5056558;28;20523;-85
2021/09/27 01:34:41;;;;;;;29.43;26.33;;;16.50;99.90;;;15.64;100.00;98138.69;5070653;28;20468;-85
2021/09/27 01:37:17;;;;;;;35.17;27.37;;;16.50;99.90;;;15.62;100.00;98129.97;5061660;28;20453;-84
2021/09/27 01:39:53;;;;;;;32.20;27.30;;;16.50;99.90;;;15.71;100.00;98145.66;5061646;28;20508;-84
2021/09/27 01:42:27;;;;;;;34.50;27.17;;;16.60;99.90;;;15.74;100.00;98122.53;5062504;28;20533;-84
2021/09/27 01:45:02;;;;;;;31.40;26.97;;;16.60;99.90;;;15.72;100.00;98130.16;5075135;28;20542;-86
2021/09/27 01:47:39;;;;;;;30.03;26.57;;;16.60;99.90;;;15.83;100.00;98137.38;5061310;28;20448;-84
2021/09/27 01:50:12;;;;;;;29.93;26.70;;;16.70;99.90;;;15.77;100.00;98143.84;5076750;28;20448;-84
2021/09/27 01:52:44;;;;;;;29.20;25.93;;;16.60;99.90;;;15.62;100.00;98140.84;5060481;28;20446;-84
2021/09/27 01:55:21;;;;;;;31.50;27.07;;;16.60;99.90;;;15.62;100.00;98136.25;5060944;28;20480;-84
2021/09/27 01:57:59;;;;;;;29.70;26.50;;;16.50;99.90;;;15.66;100.00;98126.50;5060105;28;20541;-83
2021/09/27 02:00:34;;;;;;;33.10;26.50;;;16.50;99.90;;;15.62;100.00;98136.25;5058850;28;20524;-83
2021/09/27 02:03:12;;;;;;;29.93;26.60;;;16.50;99.90;;;15.60;100.00;98134.81;5060319;28;20465;-85
2021/09/27 02:05:49;;;;;;;26.03;23.23;;;16.50;99.90;;;15.65;100.00;98134.91;5061508;28;20569;-85
2021/09/27 02:08:23;;;;;;;30.10;25.80;;;16.50;99.90;;;15.60;100.00;98143.00;5067639;28;20460;-85
2021/09/27 02:10:58;;;;;;;27.77;24.83;;;16.50;99.90;;;15.56;100.00;98138.06;5066105;28;20976;-83
2021/09/27 02:13:31;;;;;;;30.10;25.60;;;16.50;99.90;;;15.72;100.00;98135.59;5064871;28;20452;-82
2021/09/27 02:16:10;;;;;;;34.50;26.73;;;16.50;99.90;;;15.72;100.00;98130.16;5058883;28;20464;-81
2021/09/27 02:18:46;;;;;;;33.97;25.70;;;16.50;99.90;;;15.64;100.00;98127.81;5065153;28;20883;-81
2021/09/27 02:21:17;;;;;;;28.67;25.67;;;16.50;99.90;;;15.67;100.00;98121.88;5061949;28;20591;-85
2021/09/27 02:23:51;;;;;;;27.47;24.57;;;16.50;99.90;;;15.73;100.00;98137.25;5066400;28;20453;-85
2021/09/27 02:26:19;;;;;;;32.70;25.70;;;16.50;99.90;;;15.72;100.00;98135.59;5086944;28;20574;-85
2021/09/27 02:28:47;;;;;;;25.97;23.37;;;16.60;99.90;;;15.50;100.00;98109.06;5090339;28;20449;-85
2021/09/27 02:31:25;;;;;;;25.80;22.93;;;16.50;99.90;;;15.64;100.00;98123.19;5087114;28;20484;-84
2021/09/27 02:34:02;;;;;;;28.47;25.37;;;16.50;99.90;;;15.15;100.00;98078.22;5091096;28;20447;-84
2021/09/27 02:36:37;;;;;;;31.23;25.50;;;16.40;99.90;;;15.46;100.00;98109.78;5078188;28;20455;-85
2021/09/27 02:39:10;;;;;;;31.20;25.53;;;16.40;99.90;;;15.45;100.00;98119.88;5070852;28;20460;-85
2021/09/27 02:41:46;;;;;;;27.60;24.90;;;16.40;99.90;;;15.44;100.00;98116.31;5077452;28;20500;-86
2021/09/27 02:44:15;;;;;;;28.00;25.00;;;16.40;99.90;;;15.44;100.00;98129.91;5077910;28;20481;-85
2021/09/27 02:46:46;;;;;;;31.70;26.50;;;16.30;99.90;;;15.51;100.00;98137.94;5087135;28;20496;-86
2021/09/27 02:49:16;;;;;;;29.53;23.70;;;16.30;99.90;;;15.66;100.00;98139.28;5066727;28;20446;-84
2021/09/27 02:51:47;;;;;;;27.53;24.20;;;16.40;99.90;;;15.56;100.00;98129.88;5078501;28;20449;-86
2021/09/27 02:54:25;;;;;;;30.20;26.10;;;16.40;99.90;;;15.40;100.00;98122.50;5080687;28;20488;-87
2021/09/27 02:57:10;;;;;;;32.40;25.80;;;16.30;99.90;;;15.59;100.00;98128.53;5083239;28;20527;-89
2021/09/27 02:59:50;;;;;;;29.53;26.43;;;16.40;99.90;;;15.63;100.00;98120.72;5086917;28;20448;-89
2021/09/27 03:02:40;;;;;;;28.73;25.63;;;16.40;99.90;;;15.54;100.00;98117.56;5079010;28;20532;-89
2021/09/27 03:05:16;;;;;;;27.70;24.80;;;16.40;99.90;;;15.37;100.00;98131.13;5082272;28;20852;-90
2021/09/27 03:08:11;;;;;;;30.73;24.17;;;16.30;99.90;;;15.30;100.00;98118.53;5109535;28;20452;-91
2021/09/27 03:10:46;;;;;;;30.20;24.50;;;16.20;99.90;;;15.30;100.00;98117.69;5085904;28;20457;-91
2021/09/27 03:13:25;;;;;;;27.13;23.43;;;16.20;99.90;;;15.28;100.00;98126.09;5073198;28;20444;-90
2021/09/27 03:16:12;;;;;;;28.03;24.33;;;16.20;99.90;;;15.29;100.00;98122.31;5096217;28;20464;-89
2021/09/27 03:19:04;;;;;;;31.27;25.70;;;16.20;99.90;;;15.29;100.00;98125.03;5076966;28;20457;-87
2021/09/27 03:21:44;;;;;;;30.00;25.07;;;16.20;99.90;;;15.36;100.00;98118.59;5090111;28;20480;-87
2021/09/27 03:24:31;;;;;;;31.03;26.23;;;16.20;99.90;;;15.54;100.00;98123.84;5075704;28;20476;-87
2021/09/27 03:27:08;;;;;;;31.50;25.40;;;16.30;99.90;;;15.47;100.00;98128.63;5076132;28;20445;-88
2021/09/27 03:29:53;;;;;;;29.23;25.50;;;16.30;99.90;;;15.55;100.00;98120.06;5078125;28;20455;-86
2021/09/27 03:32:35;;;;;;;27.33;24.33;;;16.40;99.90;;;15.38;100.00;98113.72;5068298;28;20854;-85
2021/09/27 03:35:11;;;;;;;32.33;25.67;;;16.30;99.90;;;15.34;100.00;98113.41;5066755;28;20575;-85
2021/09/27 03:37:56;;;;;;;29.50;26.23;;;16.30;99.90;;;15.31;100.00;98119.31;5085769;28;20460;-85
2021/09/27 03:40:37;;;;;;;30.73;27.43;;;16.20;99.90;;;15.40;100.00;98123.31;5065259;28;21429;-85
2021/09/27 03:43:17;;;;;;;30.27;26.97;;;16.20;99.90;;;15.39;100.00;98115.38;5066893;28;20517;-85
2021/09/27 03:45:58;;;;;;;31.20;26.50;;;16.30;99.90;;;15.47;100.00;98112.28;5072610;28;20486;-85
2021/09/27 03:48:35;;;;;;;30.03;26.43;;;16.30;99.90;;;15.37;100.00;98112.09;5070685;28;20448;-85
2021/09/27 03:51:08;;;;;;;27.00;24.13;;;16.30;99.90;;;15.40;100.00;98117.88;5070790;28;20501;-84
2021/09/27 03:53:44;;;;;;;30.43;25.30;;;16.30;99.90;;;15.43;100.00;98117.38;5074876;28;20448;-87
2021/09/27 03:56:17;;;;;;;32.10;26.87;;;16.30;99.90;;;15.35;100.00;98109.63;5071866;28;20470;-86
2021/09/27 03:58:52;;;;;;;28.40;25.30;;;16.30;99.90;;;15.39;100.00;98118.94;5076710;28;20463;-87
2021/09/27 04:01:27;;;;;;;31.03;25.90;;;16.30;99.90;;;15.39;100.00;98116.22;5072068;28;20476;-87
2021/09/27 04:04:21;;;;;;;31.77;27.30;;;16.30;99.90;;;15.52;100.00;98096.03;5078182;28;20974;-87
2021/09/27 04:07:20;;;;;;;28.63;25.50;;;16.40;99.90;;;15.79;100.00;98103.56;5091647;28;20480;-88
2021/09/27 04:10:07;;;;;;;28.93;25.30;;;16.60;99.90;;;15.89;100.00;98112.97;5081829;28;20492;-89
2021/09/27 04:12:51;;;;;;;29.20;26.00;;;16.60;99.90;;;15.79;100.00;98111.72;5088946;28;20456;-88
2021/09/27 04:19:02;;;;;;;30.40;26.37;;;16.60;99.90;;;15.71;100.00;98107.50;5081475;28;20520;-89
2021/09/27 04:21:43;;;;;;;32.37;27.70;;;16.60;99.90;;;15.66;100.00;98117.50;5071250;28;20578;-84
2021/09/27 04:24:41;;;;;;;30.80;25.53;;;16.60;99.90;;;15.65;100.00;98113.13;5068738;28;20475;-85
2021/09/27 04:27:38;;;;;;;30.47;26.43;;;16.60;99.90;;;15.66;100.00;98109.31;5073563;28;20460;-87
2021/09/27 04:30:38;;;;;;;28.50;25.60;;;16.60;99.90;;;15.73;100.00;98107.28;5075634;28;20440;-87
2021/09/27 04:33:27;;;;;;;30.60;26.23;;;16.60;99.90;;;15.69;100.00;98111.53;5071987;28;20444;-89
2021/09/27 04:36:06;;;;;;;33.77;28.60;;;16.60;99.90;;;15.54;100.00;98112.13;5068173;28;21033;-88
2021/09/27 04:38:36;;;;;;;35.10;31.30;;;16.50;99.90;;;15.65;100.00;98113.13;5069076;28;20453;-87
2021/09/27 04:41:44;;;;;;;34.63;30.83;;;16.60;99.90;;;15.68;100.00;98112.63;5078858;28;20972;-88
2021/09/27 04:44:28;;;;;;;34.97;30.47;;;16.60;99.90;;;15.51;100.00;98082.66;5069525;28;20566;-86
2021/09/27 04:47:03;;;;;;;42.13;31.83;;;16.60;99.90;;;15.69;100.00;98108.81;5069148;28;21068;-87
2021/09/27 04:49:51;;;;;;;38.70;31.60;;;16.60;99.90;;;15.68;100.00;98105.28;5072793;28;20452;-86
2021/09/27 04:52:34;;;;;;;39.70;31.27;;;16.60;99.90;;;15.69;100.00;98108.81;5076293;28;20449;-85
2021/09/27 04:55:41;;;;;;;37.77;31.10;;;16.60;99.90;;;15.57;100.00;98101.56;5073834;28;20464;-86
2021/09/27 04:58:25;;;;;;;37.80;31.30;;;16.50;99.90;;;15.62;100.00;98110.91;5062162;28;20457;-84
2021/09/27 05:01:09;;;;;;;39.60;32.57;;;16.50;99.90;;;15.61;100.00;98112.78;5076790;28;20483;-85
2021/09/27 05:03:54;;;;;;;36.27;31.53;;;16.50;99.90;;;15.51;100.00;98107.97;5065031;28;20484;-86
2021/09/27 05:06:56;;;;;;;34.33;30.40;;;16.50;99.90;;;15.67;100.00;98108.25;5078703;28;20464;-87
2021/09/27 05:09:35;;;;;;;36.37;30.60;;;16.50;99.90;;;15.54;100.00;98112.97;5068883;28;20453;-82
2021/09/27 05:12:32;;;;;;;34.50;30.43;;;16.50;99.90;;;15.51;100.00;98107.97;5072931;28;20460;-83
2021/09/27 05:15:22;;;;;;;36.87;31.27;;;16.40;99.90;;;15.51;100.00;98118.88;5080240;28;20557;-83
2021/09/27 05:18:29;;;;;;;36.30;30.70;;;16.40;99.90;;;15.64;100.00;98116.91;5058754;28;20504;-84
2021/09/27 05:21:22;;;;;;;35.43;29.00;;;16.50;99.90;;;15.68;100.00;98123.50;5072514;28;20481;-84
2021/09/27 05:24:04;;;;;;;37.60;31.23;;;16.50;99.90;;;15.58;100.00;98119.56;5066041;28;20480;-85
2021/09/27 05:27:04;;;;;;;38.80;33.00;;;16.50;99.90;;;15.64;100.00;98122.38;5057547;28;20958;-75
2021/09/27 05:29:47;;;;;;;40.07;32.60;;;16.50;99.90;;;15.66;100.00;98125.66;5061372;28;20480;-74
2021/09/27 05:32:48;;;;;;;35.80;32.00;;;16.50;99.90;;;15.86;100.00;98123.31;5058567;28;20489;-74
2021/09/27 05:35:46;;;;;;;37.00;31.17;;;16.60;99.90;;;15.86;100.00;98120.56;5059367;28;21008;-73
2021/09/27 05:38:25;;;;;;;32.93;29.53;;;16.60;99.90;;;15.82;100.00;98113.94;5053904;28;21540;-73
2021/09/27 05:41:10;;;;;;;33.20;29.70;;;16.70;99.90;;;15.90;100.00;98114.66;5058237;28;20838;-73
2021/09/27 05:44:08;;;;;;;35.83;29.83;;;16.70;99.90;;;15.90;100.00;98126.38;5061903;28;20548;-73
2021/09/27 05:46:55;;;;;;;34.97;30.53;;;16.70;99.90;;;15.80;100.00;98126.19;5057482;28;20530;-74
2021/09/27 05:49:42;;;;;;;33.43;29.83;;;16.70;99.90;;;15.85;100.00;98129.81;5060090;28;20519;-73
2021/09/27 05:52:21;;;;;;;35.60;29.87;;;16.70;99.90;;;15.92;100.00;98123.41;5063666;28;20515;-75
2021/09/27 05:55:00;;;;;;;36.27;29.20;;;16.70;99.90;;;15.94;100.00;98121.25;5061426;28;20511;-74
2021/09/27 05:57:36;;;;;;;35.53;29.30;;;16.70;99.90;;;15.90;100.00;98117.38;5060208;28;20495;-74
2021/09/27 06:00:10;;;;;;;34.50;29.67;;;16.80;99.90;;;16.00;100.00;98123.81;5061148;28;20553;-72
2021/09/27 06:02:55;;;;;;;35.60;28.90;;;16.80;99.90;;;15.90;100.00;98120.09;5064133;28;20553;-73
2021/09/27 06:05:30;;;;;;;36.70;30.60;;;16.80;99.90;;;15.99;100.00;98111.25;5063049;28;20558;-74
2021/09/27 06:08:09;;;;;;;54.87;40.23;;;16.80;99.90;;;16.25;100.00;98121.72;5066161;28;20518;-73
2021/09/27 06:10:44;;;;;;;34.47;29.47;;;16.90;99.90;;;16.07;100.00;98120.91;5062407;28;20551;-72
2021/09/27 06:13:21;;;;;;;36.17;31.57;;;17.00;99.90;;;16.03;100.00;98141.56;5064602;28;20449;-73
2021/09/27 06:15:52;;;;;;;34.93;31.03;;;16.90;99.90;;;16.10;100.00;98134.03;5063079;28;20623;-72
2021/09/27 06:18:50;;;;;;;36.80;31.23;;;17.00;99.90;;;16.36;100.00;98131.72;5060884;28;21036;-72
2021/09/27 06:21:42;;;;;;;37.00;30.70;;;17.10;99.90;;;16.31;100.00;98142.56;5059920;28;20473;-71
2021/09/27 06:24:27;;;;;;;37.97;31.70;;;17.20;99.90;;;16.34;100.00;98133.88;5063285;28;20913;-72
2021/09/27 06:27:05;;;;;;;34.40;30.40;;;17.20;99.90;;;16.35;100.00;98132.78;5064799;28;20457;-71
2021/09/27 06:29:43;;;;;;;35.90;29.90;;;17.30;99.90;;;16.26;100.00;98132.38;5052026;28;20554;-72
2021/09/27 06:32:20;;;;;;;34.63;30.17;;;17.30;99.90;;;16.25;100.00;98138.06;5061111;28;20459;-72
2021/09/27 06:34:53;;;;;;;35.17;30.60;;;17.20;99.90;;;16.32;100.00;98125.13;5059623;28;20472;-72
2021/09/27 06:37:23;;;;;;;38.13;31.40;;;17.20;99.90;;;16.49;99.83;98137.88;5064540;28;20456;-72
2021/09/27 06:39:53;;;;;;;33.43;29.80;;;17.30;99.90;;;16.32;99.45;98138.75;5060820;28;20829;-72
2021/09/27 06:42:20;;;;;;;36.50;29.40;;;17.30;98.90;;;16.38;99.24;98132.28;5064467;28;20844;-71
2021/09/27 06:44:47;;;;;;;34.10;29.73;;;17.30;98.70;;;16.42;98.10;98127.97;5062743;28;20475;-72
2021/09/27 06:47:17;;;;;;;34.77;29.57;;;17.30;98.10;;;16.25;98.60;98129.91;5062068;28;20466;-72
2021/09/27 06:49:44;;;;;;;35.40;29.80;;;17.20;98.30;;;16.29;98.60;98122.88;5064500;28;21362;-71
2021/09/27 06:52:12;;;;;;;28.63;25.60;;;17.20;98.50;;;16.53;98.46;98122.66;5062260;28;20452;-71
2021/09/27 06:54:39;;;;;;;32.10;28.70;;;17.20;99.40;;;16.45;98.11;98117.63;5063932;28;20484;-72
2021/09/27 06:57:07;;;;;;;32.50;28.63;;;17.30;99.10;;;16.35;99.26;98134.69;5063369;28;20492;-71
2021/09/27 06:59:34;;;;;;;30.80;27.60;;;17.20;99.50;;;16.28;99.75;98126.66;5058441;28;20564;-72
2021/09/27 07:02:01;;;;;;;35.67;28.73;;;17.20;99.90;;;16.28;99.39;98129.41;5060181;28;20453;-72
2021/09/27 07:04:28;;;;;;;31.03;27.73;;;17.10;99.90;;;16.29;100.00;98136.50;5071641;28;20552;-72
2021/09/27 07:06:56;;;;;;;32.33;28.37;;;17.10;99.90;;;16.28;99.51;98141.13;5058900;28;20526;-73
2021/09/27 07:09:23;;;;;;;33.27;28.17;;;17.20;99.90;;;16.31;98.81;98137.09;5056856;28;20497;-72
2021/09/27 07:11:50;;;;;;;32.23;28.07;;;17.20;99.10;;;16.26;98.74;98145.19;5058306;28;20449;-73
2021/09/27 07:14:18;;;;;;;34.13;29.53;;;17.20;98.90;;;16.36;98.93;98139.88;5057147;28;21032;-73
2021/09/27 07:16:45;;;;;;;36.47;29.23;;;17.20;99.40;;;16.64;98.06;98129.91;5057406;28;20483;-73
2021/09/27 07:19:13;;;;;;;31.30;28.10;;;17.40;98.70;;;16.89;96.36;98133.22;5065138;28;20452;-72
2021/09/27 07:21:43;;;;;;;31.30;28.00;;;17.70;96.70;;;16.96;94.88;98126.50;5063052;28;20464;-66
2021/09/27 07:24:13;;;;;;;30.73;25.37;;;17.90;95.30;;;17.40;92.99;98130.28;5055200;28;22535;-68
2021/09/27 07:26:40;;;;;;;30.50;27.03;;;18.10;94.50;;;17.48;91.46;98142.66;5066544;28;20453;-68
2021/09/27 07:29:09;;;;;;;26.80;24.00;;;18.30;93.10;;;17.53;90.51;98138.06;5065484;28;20460;-67
2021/09/27 07:31:38;;;;;;;29.97;24.43;;;18.40;92.40;;;17.39;91.26;98126.72;5058904;28;21151;-67
2021/09/27 07:34:08;;;;;;;25.83;23.07;;;18.30;92.40;;;17.51;87.74;98134.75;5063053;28;20473;-69
2021/09/27 07:36:36;;;;;;;28.10;24.17;;;18.40;90.80;;;17.12;89.70;98140.34;5062390;28;20460;-66
2021/09/27 07:39:05;;;;;;;27.70;24.33;;;18.10;91.10;;;17.16;89.40;98141.47;5064190;28;20464;-66
2021/09/27 07:41:33;;;;;;;25.37;22.87;;;18.10;91.20;;;17.07;89.09;98137.56;5060617;28;20467;-66
2021/09/27 07:44:00;;;;;;;27.20;24.03;;;18.00;91.20;;;16.80;90.84;98138.31;5065307;28;20468;-67
2021/09/27 07:46:28;;;;;;;27.53;24.63;;;17.70;91.70;;;16.53;92.29;98130.84;5065772;28;20491;-67
2021/09/27 07:48:56;;;;;;;27.53;24.50;;;17.60;92.20;;;16.58;92.66;98141.81;5065248;28;20456;-67
2021/09/27 07:51:24;;;;;;;27.30;24.50;;;17.50;92.80;;;16.68;92.35;98139.22;5065576;28;20468;-67
2021/09/27 07:53:52;;;;;;;26.83;24.13;;;17.50;93.20;;;17.06;89.79;98138.63;5066145;28;20880;-67
2021/09/27 07:56:20;;;;;;;27.20;24.23;;;17.80;92.10;;;16.85;90.39;98131.00;5065722;28;20457;-67
2021/09/27 07:58:47;;;;;;;27.03;24.13;;;17.80;91.90;;;16.69;91.23;98132.69;5063681;28;20449;-67
2021/09/27 08:01:15;;;;;;;28.43;24.20;;;17.70;92.00;;;16.76;91.10;98127.06;5063524;28;20547;-66
2021/09/27 08:03:42;;;;;;;24.53;22.03;;;17.70;92.10;;;17.19;88.21;98132.78;5067276;28;20469;-67
2021/09/27 08:06:13;;;;;;;26.17;23.57;;;18.00;91.10;;;17.24;88.84;98119.19;5064835;28;20465;-66
2021/09/27 08:08:40;;;;;;;25.83;23.30;;;18.10;91.30;;;17.40;87.98;98130.28;5062392;28;20461;-67
2021/09/27 08:11:08;;;;;;;25.27;22.83;;;18.20;90.80;;;17.61;87.92;98125.00;5063282;28;21022;-67
2021/09/27 08:13:35;;;;;;;24.47;21.97;;;18.40;90.80;;;17.67;86.90;98130.25;5063902;28;20464;-68
2021/09/27 08:16:04;;;;;;;25.03;21.33;;;18.50;90.20;;;17.59;85.71;98119.81;5063373;28;21000;-66
2021/09/27 08:18:31;;;;;;;23.97;20.23;;;18.50;89.60;;;17.83;85.75;98125.78;5069034;28;20460;-66
2021/09/27 08:21:04;;;;;;;25.07;22.50;;;18.70;89.70;;;17.89;85.01;98131.25;5064677;28;20460;-68
2021/09/27 08:23:33;;;;;;;26.37;22.57;;;18.80;89.20;;;17.88;84.68;98129.63;5065084;28;20581;-67
2021/09/27 08:26:00;;;;;;;23.77;21.20;;;18.80;88.50;;;17.76;86.02;98132.53;5065928;28;20517;-68
2021/09/27 08:28:30;;;;;;;22.07;19.93;;;18.70;89.00;;;17.90;85.42;98116.50;5058112;28;20976;-67
2021/09/27 08:31:01;;;;;;;23.00;20.70;;;18.80;89.10;;;17.86;85.46;98123.59;5061766;28;20453;-67
2021/09/27 08:33:31;;;;;;;23.83;21.30;;;18.80;89.00;;;17.95;85.09;98124.75;5057746;28;20559;-67
2021/09/27 08:36:00;;;;;;;22.80;20.30;;;18.80;89.00;;;18.01;84.77;98123.72;5078882;28;20469;-67
2021/09/27 08:38:29;;;;;;;24.37;21.33;;;18.90;88.70;;;18.07;84.71;98122.69;5063003;28;20975;-65
2021/09/27 08:41:08;;;;;;;20.33;18.43;;;18.90;88.50;;;18.71;80.76;98130.19;5062198;28;20513;-67
2021/09/27 08:44:11;;;;;;;20.60;18.50;;;19.30;86.80;;;19.09;79.24;98130.94;5065543;28;20555;-66
2021/09/27 08:46:48;;;;;;;19.40;17.40;;;19.80;85.20;;;19.65;76.18;98129.41;5064086;28;20560;-67
2021/09/27 08:49:23;;;;;;;19.80;17.80;;;20.20;83.00;;;19.92;74.93;98131.09;5064051;28;20544;-67
2021/09/27 08:51:51;;;;;;;18.60;16.60;;;20.60;81.70;;;20.01;73.59;98129.44;5064845;28;20956;-67
2021/09/27 08:54:24;;;;;;;20.67;18.67;;;20.80;80.20;;;20.24;73.21;98128.06;5066736;28;20503;-67
2021/09/27 08:57:00;;;;;;;20.87;18.87;;;20.90;79.80;;;20.30;73.74;98119.81;5063109;28;20472;-67
2021/09/27 08:59:44;;;;;;;20.90;18.70;;;21.10;79.80;;;20.48;72.16;98122.00;5063026;28;20464;-67
2021/09/27 09:02:24;;;;;;;19.10;17.47;;;21.10;78.80;;;20.79;70.24;98121.06;5066030;28;20960;-67
2021/09/27 09:05:08;;;;;;;20.67;18.57;;;21.40;77.20;;;20.89;70.67;98110.09;5063457;28;20481;-67
2021/09/27 09:07:44;;;;;;;17.70;15.00;;;21.60;77.30;;;20.65;71.62;98120.84;5059728;28;20457;-68
2021/09/27 09:10:14;;;;;;;14.80;13.47;;;21.60;77.00;;;20.38;70.27;98120.06;5057524;28;20487;-67
2021/09/27 09:12:48;;;;;;;16.60;13.80;;;21.30;75.20;;;20.30;70.16;98115.16;5061423;28;20464;-67
2021/09/27 09:15:21;;;;;;;11.73;10.73;;;21.20;74.90;;;20.08;67.53;98123.69;5054550;28;20477;-67
2021/09/27 09:17:55;;;;;;;14.53;13.23;;;21.10;72.30;;;20.01;69.37;98117.66;5058799;28;20559;-67
2021/09/27 09:20:41;;;;;;;15.77;13.40;;;21.00;73.40;;;20.38;69.10;98122.81;5060313;28;20991;-68
2021/09/27 09:23:08;;;;;;;14.00;12.70;;;21.00;73.70;;;20.81;67.69;98118.88;5061221;28;20476;-67
2021/09/27 09:25:40;;;;;;;14.13;12.93;;;21.40;73.50;;;19.77;70.51;98090.78;5059106;28;21006;-66
2021/09/27 09:28:10;;;;;;;12.80;11.70;;;21.10;73.50;;;20.41;68.06;98115.97;5059437;28;21003;-67
2021/09/27 09:30:44;;;;;;;13.57;12.40;;;21.20;73.30;;;21.13;65.97;98116.84;5054887;28;20547;-67
2021/09/27 09:33:35;;;;;;;15.10;13.40;;;21.60;72.50;;;21.38;65.60;98115.88;5062604;28;20463;-67
2021/09/27 09:36:02;;;;;;;14.27;12.40;;;21.90;72.50;;;21.67;64.64;98112.41;5058098;28;20473;-67
2021/09/27 09:38:33;;;;;;;11.77;10.67;;;22.20;71.40;;;21.84;63.08;98116.69;5068449;28;20456;-66
2021/09/27 09:41:01;;;;;;;10.67;9.60;;;22.30;70.80;;;21.61;62.34;98121.75;5059887;28;20448;-67
2021/09/27 09:43:33;;;;;;;11.07;9.87;;;22.40;68.90;;;21.54;62.49;98116.59;5065360;28;20476;-66
2021/09/27 09:46:08;;;;;;;13.83;12.40;;;22.40;68.20;;;21.98;62.18;98117.66;5062137;28;20551;-67
2021/09/27 09:48:38;;;;;;;13.43;12.13;;;22.50;68.70;;;22.10;62.13;98113.72;5062282;28;20492;-67
2021/09/27 09:51:30;;;;;;;13.37;12.20;;;22.80;68.60;;;22.07;61.44;98104.94;5064157;28;20473;-67
2021/09/27 09:54:10;;;;;;;12.87;11.67;;;22.80;67.80;;;21.59;62.39;98107.47;5053582;28;20455;-67
2021/09/27 09:56:40;;;;;;;12.40;11.30;;;22.70;67.70;;;21.27;64.66;98114.28;5061846;28;20456;-67
2021/09/27 09:59:24;;;;;;;12.03;11.10;;;22.20;68.40;;;21.21;64.37;98106.06;5063076;28;20461;-67
2021/09/27 10:01:55;;;;;;;12.17;10.67;;;21.90;68.80;;;21.18;64.75;98109.41;5066221;28;20541;-67
2021/09/27 10:04:27;;;;;;;17.93;12.00;;;21.90;69.00;;;20.69;65.89;98101.88;5062047;28;20484;-67
2021/09/27 10:07:05;;;;;;;14.40;11.47;;;21.70;68.80;;;20.84;66.34;98112.03;5062365;28;21034;-66
2021/09/27 10:09:36;;;;;;;14.13;10.80;;;21.60;69.80;;;21.12;64.34;98116.00;5061622;28;21900;-67
2021/09/27 10:12:09;;;;;;;12.60;11.40;;;21.70;68.70;;;21.20;64.33;98115.44;5062284;28;20521;-66
2021/09/27 10:14:42;;;;;;;13.33;12.23;;;21.80;68.90;;;21.23;64.28;98103.06;5061168;28;20473;-65
2021/09/27 10:17:30;;;;;;;12.00;10.80;;;21.90;68.80;;;21.18;65.89;98106.66;5064480;28;20452;-67
2021/09/27 10:20:10;;;;;;;13.37;12.17;;;21.90;69.90;;;21.17;66.00;98110.50;5062963;28;20517;-66
2021/09/27 10:22:40;;;;;;;14.40;13.00;;;21.90;70.10;;;21.10;66.80;98112.72;5059425;28;20456;-65
2021/09/27 10:25:32;;;;;;;15.63;14.20;;;21.80;70.40;;;20.65;70.23;98116.16;5061652;28;20469;-67
2021/09/27 10:28:01;;;;;;;13.97;12.77;;;21.50;72.30;;;20.80;68.27;98106.22;5066368;28;20463;-66
2021/09/27 10:30:45;;;;;;;13.90;12.80;;;21.50;71.10;;;21.16;67.72;98114.34;5063293;28;20457;-66
2021/09/27 10:33:18;;;;;;;15.67;13.97;;;21.70;71.40;;;21.20;67.89;98115.44;5062257;28;20514;-67
2021/09/27 10:35:55;;;;;;;14.77;13.57;;;21.80;71.50;;;20.99;68.17;98108.38;5060957;28;20464;-67
2021/09/27 10:38:29;;;;;;;16.00;14.60;;;21.80;71.50;;;20.94;69.54;98112.78;5059655;28;20537;-66
2021/09/27 10:41:04;;;;;;;16.57;14.97;;;21.60;72.10;;;21.19;68.33;98112.94;5076774;28;20835;-66
2021/09/27 10:43:32;;;;;;;14.70;13.40;;;21.90;72.20;;;20.59;68.97;98109.06;5078452;28;20464;-66
2021/09/27 10:46:03;;;;;;;15.87;14.40;;;21.60;70.70;;;20.80;68.34;98111.72;5055675;28;20488;-66